Gas Hills, Wyoming
Current Conditions -  °F | °C
As of 7:53 AM on Monday 22 Dec 2014 (Local Time) from KLND Reporting Station
Clear Clear  
Wind Chill: 17°   Ceiling: Unl
Heat Index: 24°   Visibility: 10mi
Dew Point: 12°   Wind: 6mph
Humidity: 60%   Direction: 170°S
Pressure: 29.74"   Gusts: NA
Location:  43.1005°N, 108.934°W
Report Text: KLND 221453Z AUTO 17005KT 10SM CLR M04/M11 A2974 RMK AO2 SLP095 T10441111 55000
Loading
Personal Weather Stations






























Interactive Weather Map New forecast layout! Learn more

10-Day Weather Forecast

Advertisements
Track Severe Weather on mobile